Time,TemperatureF,DewpointF,PressureIn,WindDirection,WindDirectionDegrees,WindSpeedMPH,WindSpeedGustMPH,Humidity,HourlyPrecipIn,Conditions,Clouds,dailyrainin,SoftwareType,DateUTC
2013-03-11 00:32:00,33.0,31.0,-100.00,North,0,7.0,12.0,90,-99.99,,,-99.99,,2013-03-11 05:32:00,
2013-03-11 00:43:00,33.0,31.0,-100.00,North,0,7.0,12.0,90,-99.99,,,-99.99,,2013-03-11 05:43:00,
2013-03-11 00:52:00,33.0,31.0,-100.00,North,0,7.0,12.0,90,-99.99,,,-99.99,,2013-03-11 05:52:00,
2013-03-11 01:02:00,33.0,31.0,-100.00,North,0,7.0,12.0,90,-99.99,,,-99.99,,2013-03-11 06:02:00,
2013-03-11 01:12:00,33.0,31.0,-100.00,North,0,7.0,12.0,90,-99.99,,,-99.99,,2013-03-11 06:12:00,
2013-03-11 01:33:00,33.0,31.0,-100.00,North,355,4.0,12.0,90,-99.99,,,-99.99,,2013-03-11 06:33:00,
2013-03-11 01:42:00,33.0,31.0,-100.00,North,355,4.0,12.0,90,-99.99,,,-99.99,,2013-03-11 06:42:00,
2013-03-11 01:53:00,33.0,31.0,-100.00,North,355,4.0,12.0,90,-99.99,,,-99.99,,2013-03-11 06:53:00,
2013-03-11 02:02:00,33.0,31.0,-100.00,North,355,4.0,12.0,90,-99.99,,,-99.99,,2013-03-11 07:02:00,
2013-03-11 02:12:00,33.0,30.0,-100.00,North,0,7.0,9.0,90,-99.99,,,-99.99,,2013-03-11 07:12:00,
2013-03-11 02:33:00,33.0,30.0,-100.00,North,0,7.0,9.0,90,-99.99,,,-99.99,,2013-03-11 07:33:00,
2013-03-11 02:42:00,33.0,30.0,-100.00,North,0,7.0,9.0,90,-99.99,,,-99.99,,2013-03-11 07:42:00,
2013-03-11 02:52:00,33.0,30.0,-100.00,North,0,7.0,9.0,90,-99.99,,,-99.99,,2013-03-11 07:52:00,
2013-03-11 03:02:00,33.0,30.0,-100.00,North,0,7.0,9.0,90,-99.99,,,-99.99,,2013-03-11 08:02:00,
2013-03-11 03:33:00,32.0,29.0,-100.00,North,355,9.0,14.0,90,-99.99,,,-99.99,,2013-03-11 08:33:00,
2013-03-11 03:42:00,32.0,29.0,-100.00,North,355,9.0,14.0,90,-99.99,,,-99.99,,2013-03-11 08:42:00,
2013-03-11 03:52:00,32.0,29.0,-100.00,North,355,9.0,14.0,90,-99.99,,,-99.99,,2013-03-11 08:52:00,
2013-03-11 04:02:00,32.0,29.0,-100.00,North,355,9.0,14.0,90,-99.99,,,-99.99,,2013-03-11 09:02:00,
2013-03-11 04:12:00,32.0,29.0,-100.00,North,355,9.0,14.0,90,-99.99,,,-99.99,,2013-03-11 09:12:00,
2013-03-11 04:32:00,32.0,29.0,-100.00,NNW,345,7.0,10.0,91,-99.99,,,-99.99,,2013-03-11 09:32:00,
2013-03-11 04:42:00,32.0,29.0,-100.00,NNW,345,7.0,10.0,91,-99.99,,,-99.99,,2013-03-11 09:42:00,
2013-03-11 04:52:00,32.0,29.0,-100.00,NNW,345,7.0,10.0,91,-99.99,,,-99.99,,2013-03-11 09:52:00,
2013-03-11 05:02:00,32.0,29.0,-100.00,NNW,345,7.0,10.0,91,-99.99,,,-99.99,,2013-03-11 10:02:00,
2013-03-11 05:12:00,32.0,29.0,-100.00,NNW,335,6.0,9.0,91,-99.99,,,-99.99,,2013-03-11 10:12:00,
2013-03-11 05:33:00,32.0,29.0,-100.00,NNW,335,6.0,9.0,91,-99.99,,,-99.99,,2013-03-11 10:33:00,
2013-03-11 05:42:00,32.0,29.0,-100.00,NNW,335,6.0,9.0,91,-99.99,,,-99.99,,2013-03-11 10:42:00,
2013-03-11 05:52:00,32.0,29.0,-100.00,NNW,335,6.0,9.0,91,-99.99,,,-99.99,,2013-03-11 10:52:00,
2013-03-11 06:02:00,32.0,29.0,-100.00,NNW,335,6.0,9.0,91,-99.99,,,-99.99,,2013-03-11 11:02:00,
2013-03-11 06:12:00,32.0,29.0,-100.00,North,350,7.0,12.0,91,-99.99,,,-99.99,,2013-03-11 11:12:00,
2013-03-11 06:33:00,32.0,29.0,-100.00,North,350,7.0,12.0,91,-99.99,,,-99.99,,2013-03-11 11:33:00,
2013-03-11 06:43:00,32.0,29.0,-100.00,North,350,7.0,12.0,91,-99.99,,,-99.99,,2013-03-11 11:43:00,
2013-03-11 06:53:00,32.0,29.0,-100.00,North,350,7.0,12.0,91,-99.99,,,-99.99,,2013-03-11 11:53:00,
2013-03-11 07:02:00,32.0,29.0,-100.00,North,350,7.0,12.0,91,-99.99,,,-99.99,,2013-03-11 12:02:00,
2013-03-11 07:33:00,32.0,29.0,-100.00,North,350,8.0,14.0,91,-99.99,,,-99.99,,2013-03-11 12:33:00,
2013-03-11 07:43:00,32.0,29.0,-100.00,North,350,8.0,14.0,91,-99.99,,,-99.99,,2013-03-11 12:43:00,
2013-03-11 07:53:00,32.0,29.0,-100.00,North,350,8.0,14.0,91,-99.99,,,-99.99,,2013-03-11 12:53:00,
2013-03-11 08:02:00,32.0,29.0,-100.00,North,350,8.0,14.0,91,-99.99,,,-99.99,,2013-03-11 13:02:00,
2013-03-11 08:12:00,32.0,29.0,-100.00,North,350,8.0,14.0,91,-99.99,,,-99.99,,2013-03-11 13:12:00,
2013-03-11 08:33:00,31.0,29.0,-100.00,North,355,6.0,8.0,90,-99.99,,,-99.99,,2013-03-11 13:33:00,
2013-03-11 08:43:00,31.0,29.0,-100.00,North,355,6.0,8.0,90,-99.99,,,-99.99,,2013-03-11 13:43:00,
2013-03-11 08:53:00,31.0,29.0,-100.00,North,355,6.0,8.0,90,-99.99,,,-99.99,,2013-03-11 13:53:00,
2013-03-11 09:02:00,31.0,29.0,-100.00,North,355,6.0,8.0,90,-99.99,,,-99.99,,2013-03-11 14:02:00,
2013-03-11 09:11:00,31.0,29.0,-100.00,NNW,340,9.0,12.0,90,-99.99,,,-99.99,,2013-03-11 14:11:00,
2013-03-11 09:33:00,31.0,29.0,-100.00,NNW,340,9.0,12.0,90,-99.99,,,-99.99,,2013-03-11 14:33:00,
2013-03-11 09:43:00,31.0,29.0,-100.00,NNW,340,9.0,12.0,90,-99.99,,,-99.99,,2013-03-11 14:43:00,
2013-03-11 09:53:00,31.0,29.0,-100.00,NNW,340,9.0,12.0,90,-99.99,,,-99.99,,2013-03-11 14:53:00,
2013-03-11 10:02:00,31.0,29.0,-100.00,NNW,340,9.0,12.0,90,-99.99,,,-99.99,,2013-03-11 15:02:00,
2013-03-11 11:12:00,31.0,28.0,-100.00,NW,305,8.0,10.0,88,-99.99,,,-99.99,,2013-03-11 16:12:00,
2013-03-11 11:32:00,31.0,28.0,-100.00,NW,305,8.0,10.0,88,-99.99,,,-99.99,,2013-03-11 16:32:00,
2013-03-11 11:43:00,31.0,28.0,-100.00,NW,305,8.0,10.0,88,-99.99,,,-99.99,,2013-03-11 16:43:00,
2013-03-11 11:52:00,31.0,28.0,-100.00,NW,305,8.0,10.0,88,-99.99,,,-99.99,,2013-03-11 16:52:00,
2013-03-11 12:02:00,31.0,28.0,-100.00,NW,305,8.0,10.0,88,-99.99,,,-99.99,,2013-03-11 17:02:00,
2013-03-11 12:12:00,31.0,28.0,-100.00,NW,315,7.0,10.0,86,-99.99,,,-99.99,,2013-03-11 17:12:00,
2013-03-11 12:38:00,31.0,28.0,-100.00,NW,315,7.0,10.0,86,-99.99,,,-99.99,,2013-03-11 17:38:00,
2013-03-11 12:53:00,31.0,28.0,-100.00,NW,315,7.0,10.0,86,-99.99,,,-99.99,,2013-03-11 17:53:00,
2013-03-11 13:02:00,31.0,28.0,-100.00,NW,315,7.0,10.0,86,-99.99,,,-99.99,,2013-03-11 18:02:00,
2013-03-11 13:12:00,32.0,28.0,-100.00,WNW,300,9.0,12.0,86,-99.99,,,-99.99,,2013-03-11 18:12:00,
2013-03-11 13:33:00,32.0,28.0,-100.00,WNW,300,9.0,12.0,86,-99.99,,,-99.99,,2013-03-11 18:33:00,
2013-03-11 13:43:00,32.0,28.0,-100.00,WNW,300,9.0,12.0,86,-99.99,,,-99.99,,2013-03-11 18:43:00,
2013-03-11 13:53:00,32.0,28.0,-100.00,WNW,300,9.0,12.0,86,-99.99,,,-99.99,,2013-03-11 18:53:00,
2013-03-11 14:02:00,32.0,28.0,-100.00,WNW,300,9.0,12.0,86,-99.99,,,-99.99,,2013-03-11 19:02:00,
2013-03-11 14:33:00,32.0,28.0,-100.00,WNW,300,6.0,10.0,84,-99.99,,,-99.99,,2013-03-11 19:33:00,
2013-03-11 14:43:00,32.0,28.0,-100.00,NW,305,9.0,14.0,84,-99.99,,,-99.99,,2013-03-11 19:43:00,
2013-03-11 14:53:00,32.0,28.0,-100.00,NW,305,9.0,14.0,84,-99.99,,,-99.99,,2013-03-11 19:53:00,
2013-03-11 15:02:00,32.0,28.0,-100.00,NW,305,9.0,14.0,84,-99.99,,,-99.99,,2013-03-11 20:02:00,
2013-03-11 15:12:00,32.0,28.0,-100.00,NW,305,9.0,14.0,84,-99.99,,,-99.99,,2013-03-11 20:12:00,
2013-03-11 17:03:00,32.0,27.0,-100.00,WNW,295,11.0,18.0,82,-99.99,,,-99.99,,2013-03-11 22:03:00,
2013-03-11 17:12:00,32.0,27.0,-100.00,WNW,295,11.0,18.0,82,-99.99,,,-99.99,,2013-03-11 22:12:00,
2013-03-11 17:22:00,32.0,27.0,-100.00,WNW,295,11.0,18.0,82,-99.99,,,-99.99,,2013-03-11 22:22:00,
2013-03-11 17:32:00,32.0,27.0,-100.00,WNW,295,11.0,18.0,82,-99.99,,,-99.99,,2013-03-11 22:32:00,
2013-03-11 18:10:00,31.0,24.0,-100.00,WNW,300,11.0,19.0,76,-99.99,,,-99.99,,2013-03-11 23:10:00,
2013-03-11 18:33:00,31.0,24.0,-100.00,WNW,300,11.0,19.0,76,-99.99,,,-99.99,,2013-03-11 23:33:00,
2013-03-11 18:43:00,31.0,24.0,-100.00,WNW,300,11.0,19.0,76,-99.99,,,-99.99,,2013-03-11 23:43:00,
2013-03-11 18:53:00,31.0,24.0,-100.00,WNW,300,11.0,19.0,76,-99.99,,,-99.99,,2013-03-11 23:53:00,
2013-03-11 19:02:00,31.0,24.0,-100.00,WNW,300,11.0,19.0,76,-99.99,,,-99.99,,2013-03-12 00:02:00,
2013-03-11 19:40:00,31.0,25.0,-100.00,WNW,300,11.0,14.0,79,-99.99,,,-99.99,,2013-03-12 00:40:00,
2013-03-11 20:02:00,31.0,25.0,-100.00,WNW,300,11.0,14.0,79,-99.99,,,-99.99,,2013-03-12 01:02:00,
2013-03-11 20:12:00,31.0,25.0,-100.00,WNW,300,11.0,14.0,79,-99.99,,,-99.99,,2013-03-12 01:12:00,
2013-03-11 20:22:00,31.0,25.0,-100.00,WNW,300,11.0,14.0,79,-99.99,,,-99.99,,2013-03-12 01:22:00,
2013-03-11 20:32:00,31.0,25.0,-100.00,WNW,300,11.0,14.0,79,-99.99,,,-99.99,,2013-03-12 01:32:00,
2013-03-11 21:32:00,31.0,24.0,-100.00,WNW,285,12.0,21.0,77,-99.99,,,-99.99,,2013-03-12 02:32:00,
2013-03-11 22:40:00,30.0,22.0,-100.00,WNW,300,11.0,22.0,71,-99.99,,,-99.99,,2013-03-12 03:40:00,
2013-03-11 23:02:00,30.0,22.0,-100.00,WNW,300,11.0,22.0,71,-99.99,,,-99.99,,2013-03-12 04:02:00,
2013-03-11 23:13:00,30.0,22.0,-100.00,WNW,300,11.0,22.0,71,-99.99,,,-99.99,,2013-03-12 04:13:00,
2013-03-11 23:22:00,30.0,22.0,-100.00,WNW,300,11.0,22.0,71,-99.99,,,-99.99,,2013-03-12 04:22:00,
2013-03-11 23:32:00,30.0,22.0,-100.00,WNW,300,11.0,22.0,71,-99.99,,,-99.99,,2013-03-12 04:32:00,